createdAt,value
2018-07-16T00:00:43.376Z,28.38
2018-07-16T00:01:43.394Z,28.30
2018-07-16T00:02:43.384Z,28.35
2018-07-16T00:03:43.401Z,28.27
2018-07-16T00:04:43.467Z,28.29
2018-07-16T00:05:43.474Z,28.20
2018-07-16T00:06:43.460Z,28.23
2018-07-16T00:07:43.524Z,28.22
2018-07-16T00:08:43.541Z,28.26
2018-07-16T00:09:43.537Z,28.20
2018-07-16T00:10:43.534Z,28.09
2018-07-16T00:11:43.541Z,28.11
2018-07-16T00:12:43.602Z,28.09
2018-07-16T00:13:43.635Z,28.09
2018-07-16T00:14:43.660Z,28.12
2018-07-16T00:15:43.633Z,28.27
2018-07-16T00:16:43.693Z,28.23
2018-07-16T00:17:43.713Z,28.34
2018-07-16T00:18:43.678Z,28.32
2018-07-16T00:19:43.744Z,28.27
2018-07-16T00:20:43.726Z,28.39
2018-07-16T00:21:43.765Z,28.34
2018-07-16T00:22:43.743Z,28.39
2018-07-16T00:23:43.772Z,28.38
2018-07-16T00:24:43.838Z,28.34
2018-07-16T00:25:43.837Z,28.36
2018-07-16T00:26:43.875Z,28.41
2018-07-16T00:27:43.847Z,28.46
2018-07-16T00:28:43.899Z,28.45
2018-07-16T00:29:43.909Z,28.56
2018-07-16T00:30:43.950Z,28.51
2018-07-16T00:31:43.968Z,28.60
2018-07-16T00:32:43.970Z,28.56
2018-07-16T00:33:43.960Z,28.69
2018-07-16T00:34:44.025Z,28.57
2018-07-16T00:35:44.057Z,28.56
2018-07-16T00:36:44.013Z,28.66
2018-07-16T00:37:44.035Z,28.54
2018-07-16T00:38:44.042Z,28.54
2018-07-16T00:39:44.094Z,28.54
2018-07-16T00:40:44.092Z,28.63
2018-07-16T00:41:44.097Z,28.57
2018-07-16T00:42:44.131Z,28.69
2018-07-16T00:43:44.157Z,28.75
2018-07-16T00:44:44.212Z,28.76
2018-07-16T00:45:44.232Z,28.73
2018-07-16T00:46:44.250Z,28.82
2018-07-16T00:47:44.930Z,28.79
2018-07-16T00:48:44.287Z,28.79
2018-07-16T00:49:44.265Z,28.75
2018-07-16T00:50:44.268Z,28.79
2018-07-16T00:51:44.299Z,28.82
2018-07-16T00:52:44.340Z,28.83
2018-07-16T00:53:44.383Z,28.93
2018-07-16T00:54:44.402Z,28.97
2018-07-16T00:55:44.422Z,28.93
2018-07-16T00:56:44.423Z,28.98
2018-07-16T00:57:44.445Z,28.94
2018-07-16T00:58:44.458Z,28.88
2018-07-16T00:59:44.497Z,28.94
2018-07-16T01:00:44.466Z,28.95
2018-07-16T01:01:44.498Z,29.09
2018-07-16T01:02:44.508Z,29.02
2018-07-16T01:03:44.572Z,29.09
2018-07-16T01:04:44.548Z,29.05
2018-07-16T01:05:44.589Z,29.13
2018-07-16T01:06:44.613Z,29.04
2018-07-16T01:07:44.650Z,29.07
2018-07-16T01:08:44.669Z,29.11
2018-07-16T01:09:44.669Z,29.25
2018-07-16T01:10:44.663Z,29.17
2018-07-16T01:11:44.703Z,29.19
2018-07-16T01:12:44.688Z,29.17
2018-07-16T01:13:44.765Z,29.11
2018-07-16T01:14:44.738Z,29.19
2018-07-16T01:15:44.789Z,29.32
2018-07-16T01:16:44.822Z,29.33
2018-07-16T01:17:44.790Z,29.29
2018-07-16T01:18:44.825Z,29.42
2018-07-16T01:19:44.880Z,29.31
2018-07-16T01:20:44.851Z,29.39
2018-07-16T01:21:44.871Z,29.46
2018-07-16T01:22:44.892Z,29.42
2018-07-16T01:23:44.960Z,29.47
2018-07-16T01:24:44.978Z,29.53
2018-07-16T01:25:44.966Z,29.57
2018-07-16T01:26:44.993Z,29.47
2018-07-16T01:27:44.992Z,29.44
2018-07-16T01:28:44.995Z,29.44
2018-07-16T01:29:45.018Z,29.46
2018-07-16T01:30:45.081Z,29.41
2018-07-16T01:31:45.113Z,29.48
2018-07-16T01:32:45.088Z,29.48
2018-07-16T01:33:45.094Z,29.48
2018-07-16T01:34:45.152Z,29.54
2018-07-16T01:35:45.144Z,29.54
2018-07-16T01:36:45.211Z,29.53
2018-07-16T01:37:45.180Z,29.55
2018-07-16T01:38:45.226Z,29.66
2018-07-16T01:39:45.245Z,29.65
2018-07-16T01:40:45.290Z,29.60
2018-07-16T01:41:45.311Z,29.66
2018-07-16T01:42:45.333Z,29.65
2018-07-16T01:43:45.330Z,29.60
2018-07-16T01:44:45.330Z,29.57
2018-07-16T01:45:45.342Z,29.58
2018-07-16T01:46:45.389Z,29.53
2018-07-16T01:47:45.426Z,29.58
2018-07-16T01:48:45.454Z,29.57
2018-07-16T01:49:45.452Z,29.60
2018-07-16T01:50:45.462Z,29.68
2018-07-16T01:51:45.503Z,29.65
2018-07-16T01:52:45.523Z,29.62
2018-07-16T01:53:45.519Z,29.63
2018-07-16T01:54:45.564Z,29.68
2018-07-16T01:55:45.583Z,29.81
2018-07-16T01:56:45.589Z,29.76
2018-07-16T01:57:45.562Z,29.63
2018-07-16T01:58:45.595Z,29.62
2018-07-16T01:59:45.660Z,29.73
2018-07-16T02:00:45.664Z,29.83
2018-07-16T02:01:45.663Z,29.76
2018-07-16T02:02:45.700Z,29.76
2018-07-16T02:03:45.720Z,29.85
2018-07-16T02:04:45.758Z,29.84
2018-07-16T02:05:45.731Z,29.81
2018-07-16T02:06:45.786Z,29.81
2018-07-16T02:07:45.817Z,29.76
2018-07-16T02:08:45.837Z,29.90
2018-07-16T02:09:45.798Z,29.87
2018-07-16T02:10:45.834Z,29.83
2018-07-16T02:11:45.851Z,29.85
2018-07-16T02:12:45.917Z,29.94
2018-07-16T02:13:45.900Z,29.87
2018-07-16T02:14:45.910Z,29.97
2018-07-16T02:15:45.928Z,29.99
2018-07-16T02:16:45.996Z,30.05
2018-07-16T02:17:46.018Z,30.03
2018-07-16T02:18:45.992Z,29.95
2018-07-16T02:19:45.995Z,30.00
2018-07-16T02:20:46.074Z,29.94
2018-07-16T02:21:46.082Z,29.91
2018-07-16T02:22:46.098Z,29.94
2018-07-16T02:23:46.088Z,29.95
2018-07-16T02:24:46.154Z,30.05
2018-07-16T02:25:46.198Z,30.05
2018-07-16T02:26:46.158Z,29.99
2018-07-16T02:27:46.213Z,30.07
2018-07-16T02:28:46.184Z,30.07
2018-07-16T02:29:46.232Z,30.12
2018-07-16T02:30:46.275Z,30.12
2018-07-16T02:31:46.295Z,30.14
2018-07-16T02:32:46.300Z,30.16
2018-07-16T02:33:46.288Z,30.06
2018-07-16T02:34:46.335Z,30.20
2018-07-16T02:35:46.372Z,30.22
2018-07-16T02:36:46.346Z,30.34
2018-07-16T02:37:46.400Z,30.21
2018-07-16T02:38:46.435Z,30.29
2018-07-16T02:39:46.453Z,30.22
2018-07-16T02:40:46.424Z,30.13
2018-07-16T02:41:46.464Z,30.13
2018-07-16T02:42:46.472Z,30.13
2018-07-16T02:43:46.489Z,30.14
2018-07-16T02:44:46.559Z,30.18
2018-07-16T02:45:46.574Z,30.16
2018-07-16T02:46:46.547Z,30.09
2018-07-16T02:47:46.591Z,30.07
2018-07-16T02:48:46.611Z,30.10
2018-07-16T02:49:46.653Z,30.16
2018-07-16T02:50:46.655Z,30.16
2018-07-16T02:51:46.672Z,30.09
2018-07-16T02:52:46.714Z,30.09
2018-07-16T02:53:46.734Z,30.06
2018-07-16T02:54:46.706Z,30.06
2018-07-16T02:55:46.749Z,30.09
2018-07-16T02:56:46.779Z,30.03
2018-07-16T02:57:46.813Z,30.09
2018-07-16T02:58:46.832Z,30.16
2018-07-16T02:59:46.850Z,30.13
2018-07-16T03:00:46.857Z,30.29
2018-07-16T03:01:46.844Z,30.34
2018-07-16T03:02:46.910Z,30.22
2018-07-16T03:03:46.914Z,30.13
2018-07-16T03:04:46.901Z,30.16
2018-07-16T03:05:46.965Z,30.05
2018-07-16T03:06:46.991Z,30.02
2018-07-16T03:07:47.011Z,30.18
2018-07-16T03:08:46.984Z,30.03
2018-07-16T03:09:47.005Z,30.05
2018-07-16T03:10:47.075Z,30.20
2018-07-16T03:11:47.066Z,30.10
2018-07-16T03:12:47.063Z,30.10
2018-07-16T03:13:47.072Z,30.12
2018-07-16T03:14:47.102Z,30.10
2018-07-16T03:15:47.151Z,30.14
2018-07-16T03:16:47.191Z,30.18
2018-07-16T03:17:47.193Z,30.21
2018-07-16T03:18:47.186Z,30.18
2018-07-16T03:19:47.230Z,30.09
2018-07-16T03:20:47.269Z,30.21
2018-07-16T03:21:47.289Z,30.16
2018-07-16T03:22:47.310Z,30.16
2018-07-16T03:23:47.285Z,30.21
2018-07-16T03:24:47.292Z,30.21
2018-07-16T03:25:47.373Z,30.28
2018-07-16T03:26:47.360Z,30.39
2018-07-16T03:27:47.389Z,30.28
2018-07-16T03:28:47.417Z,30.40
2018-07-16T03:29:47.444Z,30.37
2018-07-16T03:30:47.424Z,30.52
2018-07-16T03:31:47.493Z,30.51
2018-07-16T03:32:47.494Z,30.48
2018-07-16T03:33:47.513Z,30.51
2018-07-16T03:34:47.496Z,30.39
2018-07-16T03:35:47.570Z,30.39
2018-07-16T03:36:47.544Z,30.43
2018-07-16T03:37:47.584Z,30.39
2018-07-16T03:38:47.673Z,30.51
2018-07-16T03:39:47.627Z,30.50
2018-07-16T03:40:47.622Z,30.52
2018-07-16T03:41:47.691Z,30.60
2018-07-16T03:42:47.665Z,30.52
2018-07-16T03:43:47.693Z,30.51
2018-07-16T03:44:47.743Z,30.50
2018-07-16T03:45:47.768Z,30.51
2018-07-16T03:46:47.749Z,30.59
2018-07-16T03:47:47.768Z,30.60
2018-07-16T03:48:47.771Z,30.56
2018-07-16T03:49:47.806Z,30.65
2018-07-16T03:50:47.827Z,30.65
2018-07-16T03:51:47.891Z,30.65
2018-07-16T03:52:47.917Z,30.66
2018-07-16T03:53:47.919Z,30.70
2018-07-16T03:54:47.917Z,30.74
2018-07-16T03:55:47.982Z,30.66
2018-07-16T03:56:47.993Z,30.69
2018-07-16T03:57:48.013Z,30.74
2018-07-16T03:58:48.011Z,30.65
2018-07-16T03:59:48.041Z,30.70
2018-07-16T04:00:48.067Z,30.74
2018-07-16T04:01:48.100Z,30.81
2018-07-16T04:02:48.124Z,30.80
2018-07-16T04:03:48.089Z,30.80
2018-07-16T04:04:48.110Z,30.85
2018-07-16T04:05:48.175Z,30.87
2018-07-16T04:06:48.167Z,30.87
2018-07-16T04:07:48.216Z,30.93
2018-07-16T04:08:48.239Z,30.93
2018-07-16T04:09:48.228Z,31.04
2018-07-16T04:10:48.278Z,31.06
2018-07-16T04:11:48.297Z,31.00
2018-07-16T04:12:48.316Z,31.04
2018-07-16T04:13:48.322Z,31.09
2018-07-16T04:14:48.361Z,31.16
2018-07-16T04:15:48.368Z,31.21
2018-07-16T04:16:48.343Z,31.30
2018-07-16T04:17:48.462Z,31.36
2018-07-16T04:18:48.447Z,31.34
2018-07-16T04:19:48.426Z,31.33
2018-07-16T04:20:48.437Z,31.19
2018-07-16T04:21:48.504Z,31.25
2018-07-16T04:22:48.482Z,31.15
2018-07-16T04:23:48.498Z,31.21
2018-07-16T04:24:48.530Z,31.33
2018-07-16T04:25:48.587Z,31.19
2018-07-16T04:26:48.589Z,31.16
2018-07-16T04:27:48.628Z,31.24
2018-07-16T04:28:48.602Z,31.31
2018-07-16T04:29:48.622Z,31.33
2018-07-16T04:30:48.737Z,31.40
2018-07-16T04:31:48.724Z,31.46
2018-07-16T04:32:48.690Z,31.43
2018-07-16T04:33:48.695Z,31.52
2018-07-16T04:34:48.727Z,31.56
2018-07-16T04:35:48.775Z,31.51
2018-07-16T04:36:48.757Z,31.51
2018-07-16T04:37:48.837Z,31.46
2018-07-16T04:38:48.856Z,31.44
2018-07-16T04:39:48.900Z,31.51
2018-07-16T04:40:48.850Z,31.41
2018-07-16T04:41:48.900Z,31.38
2018-07-16T04:42:48.904Z,31.41
2018-07-16T04:43:48.940Z,31.34
2018-07-16T04:44:48.981Z,31.41
2018-07-16T04:45:48.955Z,31.38
2018-07-16T04:46:48.979Z,31.40
2018-07-16T04:47:49.030Z,31.33
2018-07-16T04:48:49.065Z,31.26
2018-07-16T04:49:49.085Z,31.18
2018-07-16T04:50:49.060Z,31.19
2018-07-16T04:51:49.111Z,31.18
2018-07-16T04:52:49.148Z,31.19
2018-07-16T04:53:49.133Z,31.29
2018-07-16T04:54:49.167Z,31.36
2018-07-16T04:55:49.216Z,31.34
2018-07-16T04:56:49.217Z,31.33
2018-07-16T04:57:49.194Z,31.30
2018-07-16T04:58:49.274Z,31.33
2018-07-16T04:59:49.304Z,31.40
2018-07-16T05:00:49.269Z,31.37
2018-07-16T05:01:49.279Z,31.36
2018-07-16T05:02:49.357Z,31.43
2018-07-16T05:03:49.359Z,31.36
2018-07-16T05:04:49.362Z,31.30
2018-07-16T05:05:49.373Z,31.16
2018-07-16T05:06:49.418Z,31.25
2018-07-16T05:07:49.460Z,31.21
2018-07-16T05:08:49.421Z,31.26
2018-07-16T05:09:49.460Z,31.33
2018-07-16T05:10:49.487Z,31.36
2018-07-16T05:11:49.516Z,31.34
2018-07-16T05:12:49.564Z,31.25
2018-07-16T05:13:49.568Z,31.25
2018-07-16T05:14:49.569Z,31.31
2018-07-16T05:15:49.579Z,31.30
2018-07-16T05:16:49.647Z,31.33
2018-07-16T05:17:49.668Z,31.44
2018-07-16T05:18:49.676Z,31.43
2018-07-16T05:19:49.665Z,31.44
2018-07-16T05:20:49.685Z,31.52
2018-07-16T05:21:49.752Z,31.62
2018-07-16T05:22:49.774Z,31.70
2018-07-16T05:23:49.747Z,31.74
2018-07-16T05:24:49.766Z,31.93
2018-07-16T05:25:49.834Z,32.00
2018-07-16T05:26:49.806Z,31.90
2018-07-16T05:27:49.847Z,31.91
2018-07-16T05:28:49.860Z,31.96
2018-07-16T05:29:49.901Z,31.98
2018-07-16T05:30:49.942Z,31.96
2018-07-16T05:31:50.078Z,31.86
2018-07-16T05:32:50.049Z,31.90
2018-07-16T05:33:49.955Z,32.08
2018-07-16T05:34:49.976Z,32.03
2018-07-16T05:35:50.001Z,31.98
2018-07-16T05:36:50.051Z,31.90
2018-07-16T05:37:50.092Z,31.77
2018-07-16T05:38:50.107Z,31.75
2018-07-16T05:39:50.085Z,31.81
2018-07-16T05:40:50.136Z,31.78
2018-07-16T05:41:50.171Z,31.74
2018-07-16T05:42:50.152Z,31.74
2018-07-16T05:43:50.171Z,31.74
2018-07-16T05:44:50.298Z,31.75
2018-07-16T05:45:50.239Z,31.74
2018-07-16T05:46:50.229Z,31.78
2018-07-16T05:47:50.261Z,31.75
2018-07-16T05:48:50.303Z,31.70
2018-07-16T05:49:50.339Z,31.67
2018-07-16T05:50:50.367Z,31.66
2018-07-16T05:51:50.381Z,31.55
2018-07-16T05:52:50.393Z,31.60
2018-07-16T05:53:50.378Z,31.52
2018-07-16T05:54:50.446Z,31.49
2018-07-16T05:55:50.466Z,31.52
2018-07-16T05:56:50.471Z,31.44
2018-07-16T05:57:50.492Z,31.51
2018-07-16T05:58:50.529Z,31.53
2018-07-16T05:59:50.506Z,31.51
2018-07-16T06:00:50.548Z,31.48
2018-07-16T06:01:50.569Z,31.51
2018-07-16T06:02:50.614Z,31.46
2018-07-16T06:03:50.588Z,31.44
2018-07-16T06:04:50.609Z,31.34
2018-07-16T06:05:50.677Z,31.43
2018-07-16T06:06:50.699Z,31.44
2018-07-16T06:07:50.668Z,31.52
2018-07-16T06:08:50.792Z,31.70
2018-07-16T06:09:50.760Z,31.78
2018-07-16T06:10:50.744Z,31.73
2018-07-16T06:11:50.754Z,31.66
2018-07-16T06:12:50.821Z,31.71
2018-07-16T06:13:50.847Z,31.63
2018-07-16T06:14:50.818Z,31.60
2018-07-16T06:15:50.842Z,31.55
2018-07-16T06:16:50.915Z,31.43
2018-07-16T06:17:50.928Z,31.38
2018-07-16T06:18:50.950Z,31.34
2018-07-16T06:19:50.911Z,31.30
2018-07-16T06:20:50.977Z,31.41
2018-07-16T06:21:51.011Z,31.40
2018-07-16T06:22:51.012Z,31.33
2018-07-16T06:23:51.041Z,31.31
2018-07-16T06:24:51.057Z,31.40
2018-07-16T06:25:51.096Z,31.29
2018-07-16T06:26:51.115Z,31.36
2018-07-16T06:27:51.136Z,31.37
2018-07-16T06:28:51.115Z,31.19
2018-07-16T06:29:51.133Z,31.30
2018-07-16T06:30:51.203Z,31.21
2018-07-16T06:31:51.220Z,31.24
2018-07-16T06:32:51.224Z,31.21
2018-07-16T06:33:51.244Z,31.21
2018-07-16T06:34:51.283Z,31.22
2018-07-16T06:35:51.267Z,31.34
2018-07-16T06:36:51.309Z,31.38
2018-07-16T06:37:51.306Z,31.46
2018-07-16T06:38:51.367Z,31.53
2018-07-16T06:39:51.391Z,31.58
2018-07-16T06:40:51.489Z,31.74
2018-07-16T06:41:51.392Z,31.73
2018-07-16T06:42:51.404Z,31.78
2018-07-16T06:43:51.451Z,31.77
2018-07-16T06:44:51.466Z,31.77
2018-07-16T06:45:51.512Z,31.75
2018-07-16T06:46:51.485Z,31.82
2018-07-16T06:47:51.548Z,31.75
2018-07-16T06:48:51.575Z,31.73
2018-07-16T06:49:51.595Z,31.73
2018-07-16T06:50:51.581Z,31.80
2018-07-16T06:51:51.619Z,31.81
2018-07-16T06:52:51.640Z,31.78
2018-07-16T06:53:51.680Z,31.91
2018-07-16T06:54:51.677Z,31.90
2018-07-16T06:55:51.676Z,31.94
2018-07-16T06:56:51.684Z,31.80
2018-07-16T06:57:51.764Z,31.75
2018-07-16T06:58:51.776Z,31.80
2018-07-16T06:59:51.817Z,31.94
2018-07-16T07:00:51.813Z,31.89
2018-07-16T07:01:51.815Z,31.90
2018-07-16T07:02:51.880Z,32.01
2018-07-16T07:03:51.890Z,31.97
2018-07-16T07:04:51.867Z,32.01
2018-07-16T07:05:51.922Z,31.91
2018-07-16T07:06:51.955Z,31.91
2018-07-16T07:07:51.977Z,32.09
2018-07-16T07:08:51.942Z,32.09
2018-07-16T07:09:51.973Z,31.82
2018-07-16T07:10:52.003Z,31.80
2018-07-16T07:11:52.060Z,31.89
2018-07-16T07:12:52.066Z,31.89
2018-07-16T07:13:52.085Z,31.98
2018-07-16T07:14:52.076Z,32.11
2018-07-16T07:15:52.140Z,32.01
2018-07-16T07:16:52.194Z,32.01
2018-07-16T07:17:52.189Z,32.01
2018-07-16T07:18:52.165Z,32.03
2018-07-16T07:19:52.183Z,32.06
2018-07-16T07:20:52.255Z,32.01
2018-07-16T07:21:52.227Z,31.97
2018-07-16T07:22:52.271Z,31.93
2018-07-16T07:23:52.302Z,31.93
2018-07-16T07:24:52.340Z,31.89
2018-07-16T07:25:52.358Z,31.89
2018-07-16T07:26:52.344Z,32.00
2018-07-16T07:27:52.363Z,31.91
2018-07-16T07:28:52.422Z,31.91
2018-07-16T07:29:52.429Z,32.01
2018-07-16T07:30:52.442Z,32.03
2018-07-16T07:31:52.426Z,32.00
2018-07-16T07:32:52.493Z,32.00
2018-07-16T07:33:52.483Z,31.89
2018-07-16T07:34:52.551Z,31.94
2018-07-16T07:35:52.556Z,31.75
2018-07-16T07:36:52.547Z,31.77
2018-07-16T07:37:52.593Z,31.91
2018-07-16T07:38:52.615Z,32.03
2018-07-16T07:39:52.656Z,32.05
2018-07-16T07:40:52.681Z,31.91
2018-07-16T07:41:52.663Z,31.77
2018-07-16T07:42:52.697Z,31.86
2018-07-16T07:43:52.717Z,31.70
2018-07-16T07:44:52.715Z,31.86
2018-07-16T07:45:52.769Z,31.80
2018-07-16T07:46:52.757Z,31.89
2018-07-16T07:47:52.783Z,31.86
2018-07-16T07:48:52.834Z,31.93
2018-07-16T07:49:52.867Z,31.94
2018-07-16T07:50:52.843Z,31.93
2018-07-16T07:51:52.863Z,31.74
2018-07-16T07:52:52.931Z,31.80
2018-07-16T07:53:52.954Z,31.96
2018-07-16T07:54:53.426Z,31.96
2018-07-16T07:55:52.994Z,31.97
2018-07-16T07:56:53.015Z,31.93
2018-07-16T07:57:53.000Z,32.08
2018-07-16T07:58:53.012Z,32.15
2018-07-16T07:59:53.020Z,32.18
2018-07-16T08:00:53.041Z,32.19
2018-07-16T08:01:53.122Z,32.15
2018-07-16T08:02:53.096Z,32.25
2018-07-16T08:03:53.166Z,32.24
2018-07-16T08:04:53.139Z,32.38
2018-07-16T08:05:53.157Z,32.11
2018-07-16T08:06:53.277Z,32.12
2018-07-16T08:07:53.191Z,32.13
2018-07-16T08:08:53.255Z,32.28
2018-07-16T08:09:53.296Z,32.24
2018-07-16T08:10:53.314Z,32.27
2018-07-16T08:11:53.333Z,32.31
2018-07-16T08:12:53.310Z,32.33
2018-07-16T08:13:53.361Z,32.31
2018-07-16T08:14:53.352Z,32.38
2018-07-16T08:15:53.419Z,32.53
2018-07-16T08:16:53.391Z,32.45
2018-07-16T08:17:53.418Z,32.46
2018-07-16T08:18:53.440Z,32.47
2018-07-16T08:19:53.484Z,32.27
2018-07-16T08:20:53.514Z,32.28
2018-07-16T08:21:53.514Z,32.28
2018-07-16T08:22:53.608Z,32.33
2018-07-16T08:23:53.549Z,32.27
2018-07-16T08:24:53.585Z,32.24
2018-07-16T08:25:53.634Z,32.27
2018-07-16T08:26:53.609Z,32.38
2018-07-16T08:27:53.652Z,32.60
2018-07-16T08:28:53.700Z,32.46
2018-07-16T08:29:53.720Z,32.56
2018-07-16T08:30:53.725Z,32.64
2018-07-16T08:31:53.742Z,32.68
2018-07-16T08:32:53.784Z,32.64
2018-07-16T08:33:53.769Z,32.69
2018-07-16T08:34:53.830Z,32.83
2018-07-16T08:35:53.828Z,32.91
2018-07-16T08:36:53.870Z,32.99
2018-07-16T08:37:53.893Z,32.93
2018-07-16T08:38:53.891Z,33.02
2018-07-16T08:39:53.912Z,32.91
2018-07-16T08:40:53.958Z,32.83
2018-07-16T08:41:53.965Z,32.90
2018-07-16T08:42:54.001Z,32.71
2018-07-16T08:43:53.962Z,32.62
2018-07-16T08:44:54.034Z,32.57
2018-07-16T08:45:54.021Z,32.72
2018-07-16T08:46:54.053Z,32.86
2018-07-16T08:47:54.093Z,32.84
2018-07-16T08:48:54.083Z,32.82
2018-07-16T08:49:54.153Z,32.91
2018-07-16T08:50:54.178Z,32.95
2018-07-16T08:51:54.197Z,32.93
2018-07-16T08:52:54.273Z,32.84
2018-07-16T08:53:54.225Z,32.83
2018-07-16T08:54:54.217Z,32.67
2018-07-16T08:55:54.284Z,32.64
2018-07-16T08:56:54.248Z,32.83
2018-07-16T08:57:54.318Z,32.86
2018-07-16T08:58:54.308Z,32.95
2018-07-16T08:59:54.326Z,33.09
2018-07-16T09:00:54.381Z,33.05
2018-07-16T09:01:54.418Z,33.06
2018-07-16T09:02:54.473Z,32.98
2018-07-16T09:03:54.416Z,33.12
2018-07-16T09:04:54.433Z,33.05
2018-07-16T09:05:54.469Z,33.08
2018-07-16T09:06:54.472Z,33.02
2018-07-16T09:07:54.549Z,33.08
2018-07-16T09:08:54.526Z,33.02
2018-07-16T09:09:54.592Z,32.90
2018-07-16T09:10:54.645Z,32.96
2018-07-16T09:11:54.618Z,33.01
2018-07-16T09:12:54.658Z,33.05
2018-07-16T09:13:54.681Z,33.04
2018-07-16T09:14:54.656Z,33.05
2018-07-16T09:15:54.710Z,33.11
2018-07-16T09:16:54.833Z,32.98
2018-07-16T09:17:54.719Z,32.95
2018-07-16T09:18:54.746Z,33.02
2018-07-16T09:19:54.812Z,33.02
2018-07-16T09:20:54.820Z,33.08
2018-07-16T09:21:54.814Z,33.11
2018-07-16T09:22:54.879Z,33.14
2018-07-16T09:23:54.879Z,33.08
2018-07-16T09:24:54.910Z,33.12
2018-07-16T09:25:54.932Z,32.93
2018-07-16T09:26:54.973Z,33.01
2018-07-16T09:27:54.989Z,33.05
2018-07-16T09:28:55.068Z,33.11
2018-07-16T09:29:54.997Z,33.08
2018-07-16T09:30:55.009Z,33.08
2018-07-16T09:31:55.077Z,33.06
2018-07-16T09:32:55.080Z,33.06
2018-07-16T09:33:55.089Z,32.96
2018-07-16T09:34:55.096Z,32.95
2018-07-16T09:35:55.119Z,32.95
2018-07-16T09:36:55.188Z,32.87
2018-07-16T09:37:55.186Z,32.80
2018-07-16T09:38:55.279Z,32.87
2018-07-16T09:39:55.218Z,32.83
2018-07-16T09:40:55.263Z,32.91
2018-07-16T09:41:55.251Z,32.91
2018-07-16T09:42:55.272Z,32.86
2018-07-16T09:43:55.317Z,32.77
2018-07-16T09:44:55.316Z,32.74
2018-07-16T09:45:55.384Z,32.57
2018-07-16T09:46:55.348Z,32.64
2018-07-16T09:47:55.386Z,32.57
2018-07-16T09:48:55.404Z,32.46
2018-07-16T09:49:55.426Z,32.43
2018-07-16T09:50:55.493Z,32.42
2018-07-16T09:51:55.466Z,32.31
2018-07-16T09:52:55.519Z,32.46
2018-07-16T09:53:55.558Z,32.49
2018-07-16T09:54:55.544Z,32.46
2018-07-16T09:55:55.582Z,32.49
2018-07-16T09:56:55.606Z,32.60
2018-07-16T09:57:55.647Z,32.53
2018-07-16T09:58:55.669Z,32.62
2018-07-16T09:59:55.644Z,32.64
2018-07-16T10:00:55.653Z,32.71
2018-07-16T10:01:55.676Z,32.61
2018-07-16T10:02:55.706Z,32.57
2018-07-16T10:03:55.753Z,32.50
2018-07-16T10:04:55.773Z,32.46
2018-07-16T10:05:55.772Z,32.46
2018-07-16T10:06:55.840Z,32.33
2018-07-16T10:07:55.841Z,32.31
2018-07-16T10:08:55.946Z,32.46
2018-07-16T10:09:55.905Z,32.40
2018-07-16T10:10:55.903Z,32.30
2018-07-16T10:11:55.934Z,32.31
2018-07-16T10:12:55.910Z,32.30
2018-07-16T10:13:55.991Z,32.27
2018-07-16T10:14:56.013Z,32.16
2018-07-16T10:15:55.998Z,32.16
2018-07-16T10:16:56.038Z,32.16
2018-07-16T10:17:56.078Z,32.08
2018-07-16T10:18:56.062Z,32.08
2018-07-16T10:19:56.070Z,32.13
2018-07-16T10:20:56.124Z,32.08
2018-07-16T10:21:56.162Z,32.13
2018-07-16T10:22:56.170Z,32.16
2018-07-16T10:23:56.158Z,32.13
2018-07-16T10:24:56.227Z,32.11
2018-07-16T10:25:56.332Z,32.24
2018-07-16T10:26:56.270Z,32.16
2018-07-16T10:27:56.276Z,32.12
2018-07-16T10:28:56.298Z,32.05
2018-07-16T10:29:56.333Z,32.05
2018-07-16T10:30:56.310Z,32.00
2018-07-16T10:31:56.326Z,32.08
2018-07-16T10:32:56.399Z,32.01
2018-07-16T10:33:56.546Z,32.11
2018-07-16T10:34:56.390Z,32.08
2018-07-16T10:35:56.417Z,31.97
2018-07-16T10:36:56.465Z,31.97
2018-07-16T10:37:56.503Z,32.03
2018-07-16T10:38:56.527Z,32.03
2018-07-16T10:39:56.520Z,32.08
2018-07-16T10:40:56.520Z,32.05
2018-07-16T10:41:56.566Z,31.98
2018-07-16T10:42:56.588Z,32.06
2018-07-16T10:43:56.613Z,32.05
2018-07-16T10:44:56.653Z,32.05
2018-07-16T10:45:56.624Z,31.94
2018-07-16T10:46:56.646Z,31.94
2018-07-16T10:47:56.699Z,31.97
2018-07-16T10:48:56.735Z,31.90
2018-07-16T10:49:56.696Z,32.01
2018-07-16T10:50:56.730Z,31.94
2018-07-16T10:51:56.797Z,31.86
2018-07-16T10:52:56.818Z,31.89
2018-07-16T10:53:56.793Z,31.75
2018-07-16T10:54:56.829Z,31.90
2018-07-16T10:55:56.844Z,31.90
2018-07-16T10:56:56.902Z,31.96
2018-07-16T10:57:56.925Z,31.82
2018-07-16T10:58:56.944Z,31.90
2018-07-16T10:59:56.947Z,31.94
2018-07-16T11:00:56.938Z,31.87
2018-07-16T11:01:57.029Z,31.73
2018-07-16T11:02:56.981Z,31.77
2018-07-16T11:03:57.037Z,31.87
2018-07-16T11:04:57.025Z,31.93
2018-07-16T11:05:57.090Z,31.74
2018-07-16T11:06:57.111Z,31.75
2018-07-16T11:07:57.117Z,31.80
2018-07-16T11:08:57.129Z,31.78
2018-07-16T11:09:57.174Z,31.78
2018-07-16T11:10:57.148Z,31.68
2018-07-16T11:11:57.195Z,31.73
2018-07-16T11:12:57.219Z,31.67
2018-07-16T11:13:57.210Z,31.59
2018-07-16T11:14:57.326Z,31.62
2018-07-16T11:15:57.298Z,31.59
2018-07-16T11:16:57.298Z,31.63
2018-07-16T11:17:57.325Z,31.59
2018-07-16T11:18:57.321Z,31.66
2018-07-16T11:19:57.382Z,31.62
2018-07-16T11:20:57.482Z,31.62
2018-07-16T11:21:57.374Z,31.55
2018-07-16T11:22:57.397Z,31.53
2018-07-16T11:23:57.465Z,31.62
2018-07-16T11:24:57.468Z,31.59
2018-07-16T11:25:57.448Z,31.62
2018-07-16T11:26:57.481Z,31.62
2018-07-16T11:27:57.547Z,31.53
2018-07-16T11:28:57.569Z,31.58
2018-07-16T11:29:57.543Z,31.55
2018-07-16T11:30:57.610Z,31.48
2018-07-16T11:31:57.619Z,31.46
2018-07-16T11:32:57.637Z,31.51
2018-07-16T11:33:57.672Z,31.44
2018-07-16T11:34:57.693Z,31.41
2018-07-16T11:35:57.755Z,31.44
2018-07-16T11:36:57.714Z,31.34
2018-07-16T11:37:57.739Z,31.29
2018-07-16T11:38:57.788Z,31.44
2018-07-16T11:39:57.779Z,31.37
2018-07-16T11:40:57.780Z,31.33
2018-07-16T11:41:57.795Z,31.29
2018-07-16T11:42:57.858Z,31.43
2018-07-16T11:43:57.865Z,31.36
2018-07-16T11:44:57.854Z,31.40
2018-07-16T11:45:57.874Z,31.29
2018-07-16T11:46:57.918Z,31.21
2018-07-16T11:47:57.937Z,31.15
2018-07-16T11:48:57.935Z,31.16
2018-07-16T11:49:57.953Z,31.18
2018-07-16T11:50:58.028Z,31.21
2018-07-16T11:51:58.044Z,31.16
2018-07-16T11:52:58.047Z,31.22
2018-07-16T11:53:58.048Z,31.22
2018-07-16T11:54:58.089Z,31.19
2018-07-16T11:55:58.109Z,31.19
2018-07-16T11:56:58.148Z,31.16
2018-07-16T11:57:58.146Z,31.15
2018-07-16T11:58:58.203Z,31.22
2018-07-16T11:59:58.148Z,31.16
2018-07-16T12:00:58.229Z,31.19
2018-07-16T12:01:58.317Z,31.09
2018-07-16T12:02:58.251Z,31.19
2018-07-16T12:03:58.240Z,31.16
2018-07-16T12:04:58.261Z,31.19
2018-07-16T12:05:58.285Z,31.22
2018-07-16T12:06:58.353Z,31.21
2018-07-16T12:07:58.372Z,31.33
2018-07-16T12:08:58.333Z,31.30
2018-07-16T12:09:58.415Z,31.29
2018-07-16T12:10:58.437Z,31.30
2018-07-16T12:11:58.395Z,31.16
2018-07-16T12:12:58.428Z,31.11
2018-07-16T12:13:58.475Z,31.03
2018-07-16T12:14:58.469Z,30.93
2018-07-16T12:15:58.485Z,30.89
2018-07-16T12:16:58.537Z,30.89
2018-07-16T12:17:58.564Z,30.93
2018-07-16T12:18:58.586Z,31.02
2018-07-16T12:19:58.617Z,30.97
2018-07-16T12:20:58.582Z,31.02
2018-07-16T12:21:58.639Z,30.85
2018-07-16T12:22:58.660Z,30.91
2018-07-16T12:23:58.700Z,30.94
2018-07-16T12:24:58.719Z,30.87
2018-07-16T12:25:58.854Z,30.91
2018-07-16T12:26:58.744Z,30.88
2018-07-16T12:27:58.767Z,30.93
2018-07-16T12:28:58.822Z,30.88
2018-07-16T12:29:58.801Z,30.91
2018-07-16T12:30:58.829Z,30.89
2018-07-16T12:31:58.850Z,30.94
2018-07-16T12:32:58.826Z,30.97
2018-07-16T12:33:58.880Z,30.87
2018-07-16T12:34:58.924Z,30.88
2018-07-16T12:35:58.885Z,30.87
2018-07-16T12:36:58.941Z,30.88
2018-07-16T12:37:58.985Z,30.87
2018-07-16T12:38:59.005Z,30.93
2018-07-16T12:39:58.975Z,30.88
2018-07-16T12:40:59.030Z,30.87
2018-07-16T12:41:59.066Z,30.88
2018-07-16T12:42:59.073Z,30.91
2018-07-16T12:43:59.071Z,30.82
2018-07-16T12:44:59.127Z,30.85
2018-07-16T12:45:59.127Z,30.88
2018-07-16T12:46:59.200Z,30.77
2018-07-16T12:47:59.178Z,30.74
2018-07-16T12:48:59.161Z,30.63
2018-07-16T12:49:59.216Z,30.69
2018-07-16T12:50:59.251Z,30.77
2018-07-16T12:51:59.215Z,30.77
2018-07-16T12:52:59.244Z,30.69